sensor_id;sensor_type;location;lat;lon;timestamp;P1;durP1;ratioP1;P2;durP2;ratioP2
13061;SDS011;6597;52.218;9.882;2023-03-14T00:00:04;4.90;;;1.70;;
13061;SDS011;6597;52.218;9.882;2023-03-14T00:02:35;6.47;;;1.73;;
13061;SDS011;6597;52.218;9.882;2023-03-14T00:05:02;7.40;;;2.37;;
13061;SDS011;6597;52.218;9.882;2023-03-14T00:07:32;8.27;;;2.10;;
13061;SDS011;6597;52.218;9.882;2023-03-14T00:10:00;7.17;;;2.10;;
13061;SDS011;6597;52.218;9.882;2023-03-14T00:12:29;7.27;;;2.30;;
13061;SDS011;6597;52.218;9.882;2023-03-14T00:14:56;4.30;;;1.90;;
13061;SDS011;6597;52.218;9.882;2023-03-14T00:17:22;5.57;;;2.37;;
13061;SDS011;6597;52.218;9.882;2023-03-14T00:19:50;5.33;;;2.10;;
13061;SDS011;6597;52.218;9.882;2023-03-14T00:22:18;3.67;;;1.90;;
13061;SDS011;6597;52.218;9.882;2023-03-14T00:24:45;4.93;;;2.20;;
13061;SDS011;6597;52.218;9.882;2023-03-14T00:27:12;2.87;;;1.67;;
13061;SDS011;6597;52.218;9.882;2023-03-14T00:29:39;4.37;;;2.07;;
13061;SDS011;6597;52.218;9.882;2023-03-14T00:32:05;6.97;;;2.17;;
13061;SDS011;6597;52.218;9.882;2023-03-14T00:34:32;5.50;;;2.00;;
13061;SDS011;6597;52.218;9.882;2023-03-14T00:37:00;6.93;;;1.77;;
13061;SDS011;6597;52.218;9.882;2023-03-14T00:39:27;4.30;;;1.90;;
13061;SDS011;6597;52.218;9.882;2023-03-14T00:41:53;4.47;;;2.00;;
13061;SDS011;6597;52.218;9.882;2023-03-14T00:44:21;3.00;;;1.63;;
13061;SDS011;6597;52.218;9.882;2023-03-14T00:46:47;5.97;;;1.97;;
13061;SDS011;6597;52.218;9.882;2023-03-14T00:49:14;3.30;;;1.70;;
13061;SDS011;6597;52.218;9.882;2023-03-14T00:51:42;4.70;;;2.10;;
13061;SDS011;6597;52.218;9.882;2023-03-14T00:54:11;4.10;;;1.80;;
13061;SDS011;6597;52.218;9.882;2023-03-14T00:56:38;8.03;;;2.00;;
13061;SDS011;6597;52.218;9.882;2023-03-14T00:59:04;7.77;;;2.50;;
13061;SDS011;6597;52.218;9.882;2023-03-14T01:01:31;11.70;;;2.43;;
13061;SDS011;6597;52.218;9.882;2023-03-14T01:03:57;11.07;;;2.70;;
13061;SDS011;6597;52.218;9.882;2023-03-14T01:06:24;10.50;;;2.20;;
13061;SDS011;6597;52.218;9.882;2023-03-14T01:08:53;8.07;;;1.87;;
13061;SDS011;6597;52.218;9.882;2023-03-14T01:11:22;7.77;;;2.30;;
13061;SDS011;6597;52.218;9.882;2023-03-14T01:13:50;8.13;;;2.40;;
13061;SDS011;6597;52.218;9.882;2023-03-14T01:16:18;7.43;;;2.10;;
13061;SDS011;6597;52.218;9.882;2023-03-14T01:18:46;10.03;;;2.67;;
13061;SDS011;6597;52.218;9.882;2023-03-14T01:21:16;7.73;;;1.90;;
13061;SDS011;6597;52.218;9.882;2023-03-14T01:23:44;10.37;;;2.67;;
13061;SDS011;6597;52.218;9.882;2023-03-14T01:26:11;8.73;;;2.40;;
13061;SDS011;6597;52.218;9.882;2023-03-14T01:28:41;8.80;;;2.30;;
13061;SDS011;6597;52.218;9.882;2023-03-14T01:31:09;7.83;;;2.20;;
13061;SDS011;6597;52.218;9.882;2023-03-14T01:33:36;7.97;;;2.50;;
13061;SDS011;6597;52.218;9.882;2023-03-14T01:36:03;8.40;;;2.20;;
13061;SDS011;6597;52.218;9.882;2023-03-14T01:38:31;6.37;;;2.00;;
13061;SDS011;6597;52.218;9.882;2023-03-14T01:40:59;6.97;;;2.40;;
13061;SDS011;6597;52.218;9.882;2023-03-14T01:43:26;6.93;;;1.87;;
13061;SDS011;6597;52.218;9.882;2023-03-14T01:48:51;6.60;;;2.10;;
13061;SDS011;6597;52.218;9.882;2023-03-14T01:51:24;11.07;;;2.20;;
13061;SDS011;6597;52.218;9.882;2023-03-14T01:53:54;9.50;;;2.67;;
13061;SDS011;6597;52.218;9.882;2023-03-14T01:56:26;10.43;;;2.53;;
13061;SDS011;6597;52.218;9.882;2023-03-14T01:58:53;10.10;;;2.47;;
13061;SDS011;6597;52.218;9.882;2023-03-14T02:01:21;14.23;;;2.30;;
13061;SDS011;6597;52.218;9.882;2023-03-14T02:03:53;10.57;;;2.37;;
13061;SDS011;6597;52.218;9.882;2023-03-14T02:06:24;9.03;;;2.03;;
13061;SDS011;6597;52.218;9.882;2023-03-14T02:08:56;11.10;;;2.10;;
13061;SDS011;6597;52.218;9.882;2023-03-14T02:11:26;6.93;;;2.10;;
13061;SDS011;6597;52.218;9.882;2023-03-14T02:14:04;10.83;;;2.60;;
13061;SDS011;6597;52.218;9.882;2023-03-14T02:16:53;8.27;;;2.10;;
13061;SDS011;6597;52.218;9.882;2023-03-14T02:19:34;9.20;;;2.07;;
13061;SDS011;6597;52.218;9.882;2023-03-14T02:22:27;7.53;;;1.93;;
13061;SDS011;6597;52.218;9.882;2023-03-14T02:25:00;8.07;;;2.07;;
13061;SDS011;6597;52.218;9.882;2023-03-14T02:27:34;7.83;;;2.17;;
13061;SDS011;6597;52.218;9.882;2023-03-14T02:30:02;9.43;;;2.33;;
13061;SDS011;6597;52.218;9.882;2023-03-14T02:32:32;8.20;;;2.17;;
13061;SDS011;6597;52.218;9.882;2023-03-14T02:35:04;10.97;;;2.00;;
13061;SDS011;6597;52.218;9.882;2023-03-14T02:37:35;11.73;;;2.43;;
13061;SDS011;6597;52.218;9.882;2023-03-14T02:40:08;7.53;;;1.80;;
13061;SDS011;6597;52.218;9.882;2023-03-14T02:42:39;8.00;;;2.13;;
13061;SDS011;6597;52.218;9.882;2023-03-14T02:48:03;10.47;;;2.43;;
13061;SDS011;6597;52.218;9.882;2023-03-14T02:50:35;6.30;;;1.73;;
13061;SDS011;6597;52.218;9.882;2023-03-14T02:53:02;8.70;;;2.23;;
13061;SDS011;6597;52.218;9.882;2023-03-14T02:55:29;3.70;;;1.53;;
13061;SDS011;6597;52.218;9.882;2023-03-14T02:58:00;4.57;;;1.87;;
13061;SDS011;6597;52.218;9.882;2023-03-14T03:00:27;4.93;;;1.67;;
13061;SDS011;6597;52.218;9.882;2023-03-14T03:02:55;3.33;;;1.70;;
13061;SDS011;6597;52.218;9.882;2023-03-14T03:05:22;5.87;;;1.50;;
13061;SDS011;6597;52.218;9.882;2023-03-14T03:07:48;6.20;;;1.77;;
13061;SDS011;6597;52.218;9.882;2023-03-14T03:10:15;4.50;;;1.80;;
13061;SDS011;6597;52.218;9.882;2023-03-14T03:12:42;5.20;;;1.80;;
13061;SDS011;6597;52.218;9.882;2023-03-14T03:15:11;4.37;;;1.47;;
13061;SDS011;6597;52.218;9.882;2023-03-14T03:17:38;2.03;;;0.90;;
13061;SDS011;6597;52.218;9.882;2023-03-14T03:20:05;2.93;;;1.03;;
13061;SDS011;6597;52.218;9.882;2023-03-14T03:22:34;8.77;;;1.87;;
13061;SDS011;6597;52.218;9.882;2023-03-14T03:25:01;4.20;;;1.60;;
13061;SDS011;6597;52.218;9.882;2023-03-14T03:27:30;8.70;;;1.80;;
13061;SDS011;6597;52.218;9.882;2023-03-14T03:29:57;3.23;;;1.53;;
13061;SDS011;6597;52.218;9.882;2023-03-14T03:32:25;4.50;;;1.17;;
13061;SDS011;6597;52.218;9.882;2023-03-14T03:34:51;5.10;;;1.83;;
13061;SDS011;6597;52.218;9.882;2023-03-14T03:37:18;6.13;;;1.70;;
13061;SDS011;6597;52.218;9.882;2023-03-14T03:39:45;5.93;;;2.10;;
13061;SDS011;6597;52.218;9.882;2023-03-14T03:42:12;1.90;;;1.10;;
13061;SDS011;6597;52.218;9.882;2023-03-14T03:44:38;6.73;;;1.80;;
13061;SDS011;6597;52.218;9.882;2023-03-14T03:47:05;9.90;;;1.90;;
13061;SDS011;6597;52.218;9.882;2023-03-14T03:49:33;5.70;;;1.63;;
13061;SDS011;6597;52.218;9.882;2023-03-14T03:52:00;6.67;;;1.77;;
13061;SDS011;6597;52.218;9.882;2023-03-14T03:54:26;2.90;;;1.20;;
13061;SDS011;6597;52.218;9.882;2023-03-14T03:56:54;4.43;;;1.10;;
13061;SDS011;6597;52.218;9.882;2023-03-14T03:59:21;3.80;;;1.60;;
13061;SDS011;6597;52.218;9.882;2023-03-14T04:01:47;5.93;;;1.80;;
13061;SDS011;6597;52.218;9.882;2023-03-14T04:04:14;4.23;;;1.23;;
13061;SDS011;6597;52.218;9.882;2023-03-14T04:06:42;9.77;;;2.17;;
13061;SDS011;6597;52.218;9.882;2023-03-14T04:09:09;7.97;;;1.63;;
13061;SDS011;6597;52.218;9.882;2023-03-14T04:11:41;4.27;;;1.53;;
13061;SDS011;6597;52.218;9.882;2023-03-14T04:14:28;6.90;;;1.60;;
13061;SDS011;6597;52.218;9.882;2023-03-14T04:17:09;8.80;;;1.77;;
13061;SDS011;6597;52.218;9.882;2023-03-14T04:19:36;7.60;;;1.30;;
13061;SDS011;6597;52.218;9.882;2023-03-14T04:22:04;7.30;;;1.60;;
13061;SDS011;6597;52.218;9.882;2023-03-14T04:24:36;12.57;;;2.30;;
13061;SDS011;6597;52.218;9.882;2023-03-14T04:27:03;10.33;;;1.73;;
13061;SDS011;6597;52.218;9.882;2023-03-14T04:29:31;8.70;;;1.50;;
13061;SDS011;6597;52.218;9.882;2023-03-14T04:31:57;13.07;;;1.70;;
13061;SDS011;6597;52.218;9.882;2023-03-14T04:34:24;10.47;;;1.47;;
13061;SDS011;6597;52.218;9.882;2023-03-14T04:36:53;0.80;;;0.70;;
13061;SDS011;6597;52.218;9.882;2023-03-14T04:39:27;0.97;;;0.80;;
13061;SDS011;6597;52.218;9.882;2023-03-14T04:42:16;0.80;;;0.70;;
13061;SDS011;6597;52.218;9.882;2023-03-14T04:44:43;0.70;;;0.70;;
13061;SDS011;6597;52.218;9.882;2023-03-14T04:47:10;0.60;;;0.60;;
13061;SDS011;6597;52.218;9.882;2023-03-14T04:49:39;0.70;;;0.60;;
13061;SDS011;6597;52.218;9.882;2023-03-14T04:52:07;0.67;;;0.67;;
13061;SDS011;6597;52.218;9.882;2023-03-14T04:54:37;1.13;;;0.70;;
13061;SDS011;6597;52.218;9.882;2023-03-14T04:57:03;1.20;;;1.10;;
13061;SDS011;6597;52.218;9.882;2023-03-14T04:59:33;1.13;;;0.70;;
13061;SDS011;6597;52.218;9.882;2023-03-14T05:02:11;1.03;;;0.80;;
13061;SDS011;6597;52.218;9.882;2023-03-14T05:04:53;1.47;;;1.00;;
13061;SDS011;6597;52.218;9.882;2023-03-14T05:07:37;1.20;;;0.80;;
13061;SDS011;6597;52.218;9.882;2023-03-14T05:10:26;0.80;;;0.70;;
13061;SDS011;6597;52.218;9.882;2023-03-14T05:13:21;1.90;;;0.90;;
13061;SDS011;6597;52.218;9.882;2023-03-14T05:16:05;2.57;;;1.00;;
13061;SDS011;6597;52.218;9.882;2023-03-14T05:18:53;1.70;;;1.10;;
13061;SDS011;6597;52.218;9.882;2023-03-14T05:21:36;3.17;;;0.87;;
13061;SDS011;6597;52.218;9.882;2023-03-14T05:24:24;4.50;;;0.97;;
13061;SDS011;6597;52.218;9.882;2023-03-14T05:27:00;2.10;;;0.90;;
13061;SDS011;6597;52.218;9.882;2023-03-14T05:29:46;1.60;;;0.77;;
13061;SDS011;6597;52.218;9.882;2023-03-14T05:32:39;3.53;;;1.00;;
13061;SDS011;6597;52.218;9.882;2023-03-14T05:35:15;4.63;;;1.00;;
13061;SDS011;6597;52.218;9.882;2023-03-14T05:37:49;1.70;;;0.90;;
13061;SDS011;6597;52.218;9.882;2023-03-14T05:40:38;1.23;;;0.80;;
13061;SDS011;6597;52.218;9.882;2023-03-14T05:43:13;1.33;;;1.03;;
13061;SDS011;6597;52.218;9.882;2023-03-14T05:46:02;0.77;;;0.70;;
13061;SDS011;6597;52.218;9.882;2023-03-14T05:48:38;1.37;;;0.93;;
13061;SDS011;6597;52.218;9.882;2023-03-14T05:51:20;2.00;;;1.13;;
13061;SDS011;6597;52.218;9.882;2023-03-14T05:54:16;3.03;;;1.30;;
13061;SDS011;6597;52.218;9.882;2023-03-14T05:57:02;3.17;;;1.30;;
13061;SDS011;6597;52.218;9.882;2023-03-14T05:59:45;3.83;;;1.37;;
13061;SDS011;6597;52.218;9.882;2023-03-14T06:02:27;4.40;;;1.37;;
13061;SDS011;6597;52.218;9.882;2023-03-14T06:05:02;7.17;;;1.40;;
13061;SDS011;6597;52.218;9.882;2023-03-14T06:07:29;6.00;;;1.73;;
13061;SDS011;6597;52.218;9.882;2023-03-14T06:09:56;2.70;;;1.30;;
13061;SDS011;6597;52.218;9.882;2023-03-14T06:12:23;5.43;;;1.43;;
13061;SDS011;6597;52.218;9.882;2023-03-14T06:14:51;4.70;;;1.70;;
13061;SDS011;6597;52.218;9.882;2023-03-14T06:17:18;3.63;;;1.43;;
13061;SDS011;6597;52.218;9.882;2023-03-14T06:19:51;2.27;;;1.17;;
13061;SDS011;6597;52.218;9.882;2023-03-14T06:22:17;9.83;;;1.50;;
13061;SDS011;6597;52.218;9.882;2023-03-14T06:24:45;4.53;;;1.23;;
13061;SDS011;6597;52.218;9.882;2023-03-14T06:27:13;3.83;;;1.43;;
13061;SDS011;6597;52.218;9.882;2023-03-14T06:29:40;3.47;;;1.50;;
13061;SDS011;6597;52.218;9.882;2023-03-14T06:32:08;3.63;;;1.53;;
13061;SDS011;6597;52.218;9.882;2023-03-14T06:34:36;4.30;;;1.77;;
13061;SDS011;6597;52.218;9.882;2023-03-14T06:37:03;5.10;;;1.40;;
13061;SDS011;6597;52.218;9.882;2023-03-14T06:39:31;4.13;;;1.77;;
13061;SDS011;6597;52.218;9.882;2023-03-14T06:42:04;3.13;;;1.43;;
13061;SDS011;6597;52.218;9.882;2023-03-14T06:44:31;5.37;;;1.70;;
13061;SDS011;6597;52.218;9.882;2023-03-14T06:46:58;4.77;;;1.30;;
13061;SDS011;6597;52.218;9.882;2023-03-14T06:49:26;8.07;;;1.80;;
13061;SDS011;6597;52.218;9.882;2023-03-14T06:51:54;9.37;;;1.60;;
13061;SDS011;6597;52.218;9.882;2023-03-14T06:54:21;3.53;;;1.63;;
13061;SDS011;6597;52.218;9.882;2023-03-14T06:56:48;6.57;;;1.60;;
13061;SDS011;6597;52.218;9.882;2023-03-14T06:59:15;3.10;;;1.17;;
13061;SDS011;6597;52.218;9.882;2023-03-14T07:01:44;2.70;;;1.20;;
13061;SDS011;6597;52.218;9.882;2023-03-14T07:04:11;3.90;;;1.50;;
13061;SDS011;6597;52.218;9.882;2023-03-14T07:06:43;4.50;;;1.50;;
13061;SDS011;6597;52.218;9.882;2023-03-14T07:09:11;9.10;;;2.10;;
13061;SDS011;6597;52.218;9.882;2023-03-14T07:11:42;7.63;;;2.07;;
13061;SDS011;6597;52.218;9.882;2023-03-14T07:14:09;3.90;;;1.80;;
13061;SDS011;6597;52.218;9.882;2023-03-14T07:16:36;4.77;;;1.07;;
13061;SDS011;6597;52.218;9.882;2023-03-14T07:19:02;3.93;;;1.53;;
13061;SDS011;6597;52.218;9.882;2023-03-14T07:21:30;3.53;;;1.50;;
13061;SDS011;6597;52.218;9.882;2023-03-14T07:24:01;6.93;;;1.80;;
13061;SDS011;6597;52.218;9.882;2023-03-14T07:26:29;4.33;;;1.70;;
13061;SDS011;6597;52.218;9.882;2023-03-14T07:28:56;3.03;;;1.50;;
13061;SDS011;6597;52.218;9.882;2023-03-14T07:31:23;3.90;;;1.57;;
13061;SDS011;6597;52.218;9.882;2023-03-14T07:33:51;6.07;;;1.80;;
13061;SDS011;6597;52.218;9.882;2023-03-14T07:36:19;3.33;;;1.47;;
13061;SDS011;6597;52.218;9.882;2023-03-14T07:38:46;3.37;;;1.40;;
13061;SDS011;6597;52.218;9.882;2023-03-14T07:41:32;3.33;;;1.50;;
13061;SDS011;6597;52.218;9.882;2023-03-14T07:44:18;2.90;;;1.23;;
13061;SDS011;6597;52.218;9.882;2023-03-14T07:46:45;3.23;;;1.27;;
13061;SDS011;6597;52.218;9.882;2023-03-14T07:49:11;2.97;;;1.53;;
13061;SDS011;6597;52.218;9.882;2023-03-14T07:51:38;3.23;;;1.53;;
13061;SDS011;6597;52.218;9.882;2023-03-14T07:54:04;2.40;;;1.33;;
13061;SDS011;6597;52.218;9.882;2023-03-14T07:56:32;3.80;;;1.30;;
13061;SDS011;6597;52.218;9.882;2023-03-14T07:58:59;2.60;;;1.20;;
13061;SDS011;6597;52.218;9.882;2023-03-14T08:01:26;4.17;;;1.53;;
13061;SDS011;6597;52.218;9.882;2023-03-14T08:03:52;3.63;;;1.30;;
13061;SDS011;6597;52.218;9.882;2023-03-14T08:06:19;3.93;;;1.50;;
13061;SDS011;6597;52.218;9.882;2023-03-14T08:08:46;5.53;;;1.10;;
13061;SDS011;6597;52.218;9.882;2023-03-14T08:11:12;4.03;;;1.73;;
13061;SDS011;6597;52.218;9.882;2023-03-14T08:13:40;8.07;;;1.60;;
13061;SDS011;6597;52.218;9.882;2023-03-14T08:16:07;2.77;;;1.60;;
13061;SDS011;6597;52.218;9.882;2023-03-14T08:18:34;5.20;;;1.50;;
13061;SDS011;6597;52.218;9.882;2023-03-14T08:21:02;4.77;;;1.80;;
13061;SDS011;6597;52.218;9.882;2023-03-14T08:23:29;3.37;;;1.70;;
13061;SDS011;6597;52.218;9.882;2023-03-14T08:25:55;3.03;;;1.27;;
13061;SDS011;6597;52.218;9.882;2023-03-14T08:28:22;3.53;;;1.50;;
13061;SDS011;6597;52.218;9.882;2023-03-14T08:30:50;3.37;;;1.47;;
13061;SDS011;6597;52.218;9.882;2023-03-14T08:33:16;4.80;;;1.53;;
13061;SDS011;6597;52.218;9.882;2023-03-14T08:35:43;4.70;;;1.40;;
13061;SDS011;6597;52.218;9.882;2023-03-14T08:38:09;3.60;;;1.50;;
13061;SDS011;6597;52.218;9.882;2023-03-14T08:40:36;4.30;;;1.20;;
13061;SDS011;6597;52.218;9.882;2023-03-14T08:43:02;2.03;;;1.30;;
13061;SDS011;6597;52.218;9.882;2023-03-14T08:45:29;2.53;;;1.40;;
13061;SDS011;6597;52.218;9.882;2023-03-14T08:47:57;2.77;;;1.13;;
13061;SDS011;6597;52.218;9.882;2023-03-14T08:50:24;3.37;;;1.60;;
13061;SDS011;6597;52.218;9.882;2023-03-14T08:52:50;3.67;;;1.40;;
13061;SDS011;6597;52.218;9.882;2023-03-14T08:55:17;3.43;;;1.53;;
13061;SDS011;6597;52.218;9.882;2023-03-14T08:57:43;4.50;;;1.50;;
13061;SDS011;6597;52.218;9.882;2023-03-14T09:00:10;4.17;;;1.70;;
13061;SDS011;6597;52.218;9.882;2023-03-14T09:02:39;5.30;;;1.53;;
13061;SDS011;6597;52.218;9.882;2023-03-14T09:05:08;2.37;;;1.20;;
13061;SDS011;6597;52.218;9.882;2023-03-14T09:07:35;3.10;;;1.60;;
13061;SDS011;6597;52.218;9.882;2023-03-14T09:10:02;3.30;;;1.57;;
13061;SDS011;6597;52.218;9.882;2023-03-14T09:12:28;3.93;;;1.73;;
13061;SDS011;6597;52.218;9.882;2023-03-14T09:14:55;4.17;;;1.70;;
13061;SDS011;6597;52.218;9.882;2023-03-14T09:17:22;4.33;;;1.97;;
13061;SDS011;6597;52.218;9.882;2023-03-14T09:19:48;2.77;;;1.43;;
13061;SDS011;6597;52.218;9.882;2023-03-14T09:22:16;2.27;;;1.40;;
13061;SDS011;6597;52.218;9.882;2023-03-14T09:24:43;2.97;;;1.30;;
13061;SDS011;6597;52.218;9.882;2023-03-14T09:27:09;3.30;;;1.60;;
13061;SDS011;6597;52.218;9.882;2023-03-14T09:29:36;2.57;;;1.40;;
13061;SDS011;6597;52.218;9.882;2023-03-14T09:32:02;3.53;;;1.50;;
13061;SDS011;6597;52.218;9.882;2023-03-14T09:34:29;2.73;;;1.10;;
13061;SDS011;6597;52.218;9.882;2023-03-14T09:36:56;2.43;;;1.17;;
13061;SDS011;6597;52.218;9.882;2023-03-14T09:39:24;1.73;;;1.10;;
13061;SDS011;6597;52.218;9.882;2023-03-14T09:41:51;1.67;;;1.07;;
13061;SDS011;6597;52.218;9.882;2023-03-14T09:44:21;1.10;;;0.90;;
13061;SDS011;6597;52.218;9.882;2023-03-14T09:46:52;1.10;;;1.00;;
13061;SDS011;6597;52.218;9.882;2023-03-14T09:49:21;2.40;;;0.80;;
13061;SDS011;6597;52.218;9.882;2023-03-14T09:51:52;1.10;;;0.93;;
13061;SDS011;6597;52.218;9.882;2023-03-14T09:54:31;1.00;;;0.90;;
13061;SDS011;6597;52.218;9.882;2023-03-14T09:57:01;0.73;;;0.73;;
13061;SDS011;6597;52.218;9.882;2023-03-14T09:59:29;2.00;;;0.50;;
13061;SDS011;6597;52.218;9.882;2023-03-14T10:01:56;1.30;;;1.20;;
13061;SDS011;6597;52.218;9.882;2023-03-14T10:04:26;0.40;;;0.40;;
13061;SDS011;6597;52.218;9.882;2023-03-14T10:06:55;1.30;;;0.87;;
13061;SDS011;6597;52.218;9.882;2023-03-14T10:09:22;0.80;;;0.80;;
13061;SDS011;6597;52.218;9.882;2023-03-14T10:11:52;1.43;;;0.80;;
13061;SDS011;6597;52.218;9.882;2023-03-14T10:14:32;0.63;;;0.60;;
13061;SDS011;6597;52.218;9.882;2023-03-14T10:17:07;4.53;;;1.00;;
13061;SDS011;6597;52.218;9.882;2023-03-14T10:19:35;0.80;;;0.80;;
13061;SDS011;6597;52.218;9.882;2023-03-14T10:22:02;0.80;;;0.80;;
13061;SDS011;6597;52.218;9.882;2023-03-14T10:24:30;0.90;;;0.73;;
13061;SDS011;6597;52.218;9.882;2023-03-14T10:27:00;0.63;;;0.63;;
13061;SDS011;6597;52.218;9.882;2023-03-14T10:29:28;0.70;;;0.70;;
13061;SDS011;6597;52.218;9.882;2023-03-14T10:31:58;1.00;;;0.90;;
13061;SDS011;6597;52.218;9.882;2023-03-14T10:34:27;1.27;;;0.73;;
13061;SDS011;6597;52.218;9.882;2023-03-14T10:36:56;0.87;;;0.50;;
13061;SDS011;6597;52.218;9.882;2023-03-14T10:39:28;0.43;;;0.43;;
13061;SDS011;6597;52.218;9.882;2023-03-14T10:42:04;2.10;;;0.70;;
13061;SDS011;6597;52.218;9.882;2023-03-14T10:44:41;0.70;;;0.70;;
13061;SDS011;6597;52.218;9.882;2023-03-14T10:47:12;0.83;;;0.80;;
13061;SDS011;6597;52.218;9.882;2023-03-14T10:49:43;0.67;;;0.60;;
13061;SDS011;6597;52.218;9.882;2023-03-14T10:52:13;0.90;;;0.70;;
13061;SDS011;6597;52.218;9.882;2023-03-14T10:54:41;0.77;;;0.77;;
13061;SDS011;6597;52.218;9.882;2023-03-14T10:57:14;0.70;;;0.70;;
13061;SDS011;6597;52.218;9.882;2023-03-14T10:59:41;1.00;;;0.90;;
13061;SDS011;6597;52.218;9.882;2023-03-14T11:05:03;0.40;;;0.40;;
13061;SDS011;6597;52.218;9.882;2023-03-14T11:07:41;1.17;;;0.93;;
13061;SDS011;6597;52.218;9.882;2023-03-14T11:10:11;1.70;;;1.00;;
13061;SDS011;6597;52.218;9.882;2023-03-14T11:12:48;1.67;;;1.10;;
13061;SDS011;6597;52.218;9.882;2023-03-14T11:15:28;2.43;;;1.23;;
13061;SDS011;6597;52.218;9.882;2023-03-14T11:18:05;2.13;;;1.20;;
13061;SDS011;6597;52.218;9.882;2023-03-14T11:20:42;1.40;;;1.00;;
13061;SDS011;6597;52.218;9.882;2023-03-14T11:23:14;1.10;;;0.90;;
13061;SDS011;6597;52.218;9.882;2023-03-14T11:25:46;1.43;;;1.07;;
13061;SDS011;6597;52.218;9.882;2023-03-14T11:28:22;2.50;;;1.20;;
13061;SDS011;6597;52.218;9.882;2023-03-14T11:30:57;2.20;;;1.23;;
13061;SDS011;6597;52.218;9.882;2023-03-14T11:33:31;2.10;;;1.20;;
13061;SDS011;6597;52.218;9.882;2023-03-14T11:36:03;2.67;;;1.10;;
13061;SDS011;6597;52.218;9.882;2023-03-14T11:38:34;1.73;;;1.00;;
13061;SDS011;6597;52.218;9.882;2023-03-14T11:41:08;1.57;;;1.17;;
13061;SDS011;6597;52.218;9.882;2023-03-14T11:43:40;3.77;;;1.57;;
13061;SDS011;6597;52.218;9.882;2023-03-14T11:46:09;6.90;;;1.60;;
13061;SDS011;6597;52.218;9.882;2023-03-14T11:48:43;2.23;;;1.20;;
13061;SDS011;6597;52.218;9.882;2023-03-14T11:51:21;2.13;;;1.00;;
13061;SDS011;6597;52.218;9.882;2023-03-14T11:53:52;1.07;;;0.80;;
13061;SDS011;6597;52.218;9.882;2023-03-14T11:56:26;1.57;;;0.97;;
13061;SDS011;6597;52.218;9.882;2023-03-14T11:58:59;6.90;;;3.57;;
13061;SDS011;6597;52.218;9.882;2023-03-14T12:01:34;26.07;;;15.10;;
13061;SDS011;6597;52.218;9.882;2023-03-14T12:04:11;22.17;;;7.47;;
13061;SDS011;6597;52.218;9.882;2023-03-14T12:06:47;7.63;;;4.03;;
13061;SDS011;6597;52.218;9.882;2023-03-14T12:09:15;2.47;;;1.13;;
13061;SDS011;6597;52.218;9.882;2023-03-14T12:11:44;5.97;;;1.63;;
13061;SDS011;6597;52.218;9.882;2023-03-14T12:14:21;7.67;;;1.63;;
13061;SDS011;6597;52.218;9.882;2023-03-14T12:16:52;8.33;;;1.70;;
13061;SDS011;6597;52.218;9.882;2023-03-14T12:19:32;6.63;;;1.70;;
13061;SDS011;6597;52.218;9.882;2023-03-14T12:22:08;5.53;;;1.40;;
13061;SDS011;6597;52.218;9.882;2023-03-14T12:24:51;3.50;;;1.00;;
13061;SDS011;6597;52.218;9.882;2023-03-14T12:30:17;5.57;;;1.40;;
13061;SDS011;6597;52.218;9.882;2023-03-14T12:36:02;8.20;;;1.70;;
13061;SDS011;6597;52.218;9.882;2023-03-14T12:39:01;6.53;;;1.40;;
13061;SDS011;6597;52.218;9.882;2023-03-14T12:41:37;3.77;;;1.30;;
13061;SDS011;6597;52.218;9.882;2023-03-14T12:50:21;4.23;;;1.10;;
13061;SDS011;6597;52.218;9.882;2023-03-14T12:53:02;4.10;;;1.20;;
13061;SDS011;6597;52.218;9.882;2023-03-14T12:55:46;3.70;;;1.10;;
13061;SDS011;6597;52.218;9.882;2023-03-14T12:58:17;3.63;;;1.00;;
13061;SDS011;6597;52.218;9.882;2023-03-14T13:00:55;5.40;;;1.33;;
13061;SDS011;6597;52.218;9.882;2023-03-14T13:03:35;4.53;;;1.27;;
13061;SDS011;6597;52.218;9.882;2023-03-14T13:06:05;4.87;;;1.27;;
13061;SDS011;6597;52.218;9.882;2023-03-14T13:08:34;3.23;;;1.00;;
13061;SDS011;6597;52.218;9.882;2023-03-14T13:11:03;3.67;;;1.00;;
13061;SDS011;6597;52.218;9.882;2023-03-14T13:13:33;1.17;;;0.40;;
13061;SDS011;6597;52.218;9.882;2023-03-14T13:16:01;8.03;;;2.57;;
13061;SDS011;6597;52.218;9.882;2023-03-14T13:18:33;10.37;;;4.10;;
13061;SDS011;6597;52.218;9.882;2023-03-14T13:21:02;4.00;;;1.50;;
13061;SDS011;6597;52.218;9.882;2023-03-14T13:23:33;4.13;;;1.23;;
13061;SDS011;6597;52.218;9.882;2023-03-14T13:26:01;5.60;;;1.60;;
13061;SDS011;6597;52.218;9.882;2023-03-14T13:28:29;3.33;;;1.43;;
13061;SDS011;6597;52.218;9.882;2023-03-14T13:30:57;3.80;;;1.50;;
13061;SDS011;6597;52.218;9.882;2023-03-14T13:33:26;5.13;;;1.40;;
13061;SDS011;6597;52.218;9.882;2023-03-14T13:35:57;5.47;;;1.70;;
13061;SDS011;6597;52.218;9.882;2023-03-14T13:38:26;4.80;;;1.90;;
13061;SDS011;6597;52.218;9.882;2023-03-14T13:40:54;5.90;;;1.90;;
13061;SDS011;6597;52.218;9.882;2023-03-14T13:43:27;4.93;;;1.83;;
13061;SDS011;6597;52.218;9.882;2023-03-14T13:46:00;4.93;;;2.17;;
13061;SDS011;6597;52.218;9.882;2023-03-14T13:48:29;7.47;;;2.00;;
13061;SDS011;6597;52.218;9.882;2023-03-14T13:51:00;7.60;;;2.53;;
13061;SDS011;6597;52.218;9.882;2023-03-14T13:53:30;8.70;;;2.33;;
13061;SDS011;6597;52.218;9.882;2023-03-14T13:55:56;6.63;;;2.70;;
13061;SDS011;6597;52.218;9.882;2023-03-14T13:58:29;6.03;;;1.50;;
13061;SDS011;6597;52.218;9.882;2023-03-14T14:00:58;5.87;;;2.00;;
13061;SDS011;6597;52.218;9.882;2023-03-14T14:03:27;5.40;;;1.50;;
13061;SDS011;6597;52.218;9.882;2023-03-14T14:05:56;2.70;;;1.20;;
13061;SDS011;6597;52.218;9.882;2023-03-14T14:08:25;5.73;;;1.80;;
13061;SDS011;6597;52.218;9.882;2023-03-14T14:10:53;4.27;;;1.63;;
13061;SDS011;6597;52.218;9.882;2023-03-14T14:13:25;4.87;;;1.83;;
13061;SDS011;6597;52.218;9.882;2023-03-14T14:15:55;5.50;;;1.20;;
13061;SDS011;6597;52.218;9.882;2023-03-14T14:18:25;7.33;;;2.20;;
13061;SDS011;6597;52.218;9.882;2023-03-14T14:20:54;3.83;;;1.83;;
13061;SDS011;6597;52.218;9.882;2023-03-14T14:23:21;5.93;;;2.20;;
13061;SDS011;6597;52.218;9.882;2023-03-14T14:25:52;12.13;;;2.00;;
13061;SDS011;6597;52.218;9.882;2023-03-14T14:28:22;5.83;;;1.70;;
13061;SDS011;6597;52.218;9.882;2023-03-14T14:31:02;5.77;;;2.33;;
13061;SDS011;6597;52.218;9.882;2023-03-14T14:33:37;6.27;;;2.13;;
13061;SDS011;6597;52.218;9.882;2023-03-14T14:36:11;4.77;;;2.00;;
13061;SDS011;6597;52.218;9.882;2023-03-14T14:38:41;7.70;;;2.30;;
13061;SDS011;6597;52.218;9.882;2023-03-14T14:41:11;15.17;;;2.47;;
13061;SDS011;6597;52.218;9.882;2023-03-14T14:43:39;7.77;;;1.77;;
13061;SDS011;6597;52.218;9.882;2023-03-14T14:46:06;4.53;;;1.83;;
13061;SDS011;6597;52.218;9.882;2023-03-14T14:48:36;3.60;;;1.77;;
13061;SDS011;6597;52.218;9.882;2023-03-14T14:51:04;3.10;;;1.70;;
13061;SDS011;6597;52.218;9.882;2023-03-14T14:53:36;13.60;;;1.90;;
13061;SDS011;6597;52.218;9.882;2023-03-14T14:56:04;22.40;;;1.93;;
13061;SDS011;6597;52.218;9.882;2023-03-14T14:58:36;5.03;;;1.90;;
13061;SDS011;6597;52.218;9.882;2023-03-14T15:01:07;5.70;;;1.73;;
13061;SDS011;6597;52.218;9.882;2023-03-14T15:03:38;4.03;;;1.37;;
13061;SDS011;6597;52.218;9.882;2023-03-14T15:06:08;6.57;;;2.07;;
13061;SDS011;6597;52.218;9.882;2023-03-14T15:08:38;3.50;;;1.60;;
13061;SDS011;6597;52.218;9.882;2023-03-14T15:11:04;6.60;;;2.00;;
13061;SDS011;6597;52.218;9.882;2023-03-14T15:13:31;6.00;;;2.87;;
13061;SDS011;6597;52.218;9.882;2023-03-14T15:16:00;8.33;;;2.30;;
13061;SDS011;6597;52.218;9.882;2023-03-14T15:18:27;8.53;;;2.33;;
13061;SDS011;6597;52.218;9.882;2023-03-14T15:20:55;3.47;;;1.57;;
13061;SDS011;6597;52.218;9.882;2023-03-14T15:23:22;8.73;;;1.77;;
13061;SDS011;6597;52.218;9.882;2023-03-14T15:25:49;9.27;;;1.63;;
13061;SDS011;6597;52.218;9.882;2023-03-14T15:28:19;6.17;;;1.70;;
13061;SDS011;6597;52.218;9.882;2023-03-14T15:30:47;2.50;;;1.17;;
13061;SDS011;6597;52.218;9.882;2023-03-14T15:33:16;3.23;;;1.20;;
13061;SDS011;6597;52.218;9.882;2023-03-14T15:35:43;3.30;;;0.90;;
13061;SDS011;6597;52.218;9.882;2023-03-14T15:38:10;4.30;;;1.20;;
13061;SDS011;6597;52.218;9.882;2023-03-14T15:40:38;7.80;;;1.80;;